createdAt,value
2018-08-06T00:00:32.603Z,96.40
2018-08-06T00:03:02.011Z,96.50
2018-08-06T00:05:31.375Z,97.10
2018-08-06T00:08:00.762Z,96.80
2018-08-06T00:10:30.155Z,96.90
2018-08-06T00:12:59.614Z,97.30
2018-08-06T00:15:29.026Z,97.30
2018-08-06T00:17:58.378Z,97.30
2018-08-06T00:20:27.748Z,98.00
2018-08-06T00:22:57.190Z,98.00
2018-08-06T00:25:26.539Z,97.80
2018-08-06T00:27:55.890Z,98.20
2018-08-06T00:30:25.214Z,98.40
2018-08-06T00:32:54.566Z,98.30
2018-08-06T00:35:23.922Z,98.60
2018-08-06T00:37:53.244Z,98.30
2018-08-06T00:40:22.594Z,98.80
2018-08-06T00:42:52.011Z,99.40
2018-08-06T00:45:21.969Z,99.50
2018-08-06T00:47:51.355Z,99.90
2018-08-06T00:52:49.626Z,99.90
2018-08-06T00:55:20.062Z,99.90
2018-08-06T00:57:49.431Z,99.90
2018-08-06T01:00:20.007Z,99.90
2018-08-06T01:02:49.469Z,99.90
2018-08-06T01:05:18.977Z,99.90
2018-08-06T01:07:48.381Z,99.90
2018-08-06T01:10:18.925Z,99.90
2018-08-06T01:12:48.318Z,99.90
2018-08-06T01:15:19.037Z,99.90
2018-08-06T01:17:48.425Z,99.90
2018-08-06T01:20:17.800Z,99.90
2018-08-06T01:22:47.196Z,99.90
2018-08-06T01:25:16.621Z,99.90
2018-08-06T01:27:45.995Z,99.90
2018-08-06T01:30:15.783Z,99.90
2018-08-06T01:32:45.185Z,99.90
2018-08-06T01:35:14.594Z,99.90
2018-08-06T01:37:43.951Z,99.90
2018-08-06T01:40:14.621Z,99.90
2018-08-06T01:42:44.015Z,99.90
2018-08-06T01:45:16.009Z,99.90
2018-08-06T01:47:45.619Z,99.90
2018-08-06T01:50:15.848Z,99.90
2018-08-06T01:52:45.202Z,99.90
2018-08-06T01:55:14.588Z,99.90
2018-08-06T01:57:43.917Z,99.90
2018-08-06T02:00:15.239Z,99.90
2018-08-06T02:02:44.706Z,99.90
2018-08-06T02:05:14.039Z,99.90
2018-08-06T02:07:43.451Z,99.90
2018-08-06T02:10:15.046Z,99.90
2018-08-06T02:12:45.085Z,99.90
2018-08-06T02:15:14.487Z,99.90
2018-08-06T02:17:43.911Z,99.90
2018-08-06T02:20:15.956Z,99.90
2018-08-06T02:25:15.874Z,99.90
2018-08-06T02:27:45.400Z,99.90
2018-08-06T02:30:15.694Z,99.90
2018-08-06T02:32:45.068Z,99.90
2018-08-06T02:35:15.238Z,99.90
2018-08-06T02:37:44.841Z,99.90
2018-08-06T02:40:21.832Z,99.90
2018-08-06T02:42:51.209Z,99.90
2018-08-06T02:45:20.602Z,99.90
2018-08-06T02:47:50.005Z,99.90
2018-08-06T02:50:19.397Z,99.90
2018-08-06T02:52:48.776Z,99.90
2018-08-06T02:55:18.127Z,99.90
2018-08-06T02:57:48.494Z,99.90
2018-08-06T03:00:18.461Z,99.90
2018-08-06T03:02:48.303Z,99.90
2018-08-06T03:05:18.930Z,99.90
2018-08-06T03:07:48.532Z,99.90
2018-08-06T03:10:17.837Z,99.90
2018-08-06T03:12:47.628Z,99.90
2018-08-06T03:15:17.026Z,99.90
2018-08-06T03:17:46.380Z,99.90
2018-08-06T03:20:15.736Z,99.90
2018-08-06T03:22:45.082Z,99.90
2018-08-06T03:25:15.588Z,99.90
2018-08-06T03:27:45.410Z,99.90
2018-08-06T03:30:16.320Z,99.90
2018-08-06T03:32:46.982Z,99.90
2018-08-06T03:35:16.410Z,99.90
2018-08-06T03:37:45.776Z,99.90
2018-08-06T03:40:15.190Z,99.90
2018-08-06T03:42:44.579Z,99.90
2018-08-06T03:47:43.509Z,99.90
2018-08-06T03:50:13.798Z,99.90
2018-08-06T03:52:43.563Z,99.90
2018-08-06T03:55:12.952Z,99.90
2018-08-06T03:57:42.448Z,99.90
2018-08-06T04:00:13.338Z,99.90
2018-08-06T04:02:43.173Z,99.90
2018-08-06T04:05:14.615Z,99.90
2018-08-06T04:07:44.058Z,99.90
2018-08-06T04:10:15.446Z,99.90
2018-08-06T04:12:44.922Z,99.90
2018-08-06T04:15:14.309Z,99.90
2018-08-06T04:17:43.990Z,99.90
2018-08-06T04:20:13.906Z,99.90
2018-08-06T04:22:43.996Z,99.90
2018-08-06T04:25:13.477Z,99.90
2018-08-06T04:27:42.905Z,99.90
2018-08-06T04:30:14.633Z,99.90
2018-08-06T04:32:45.170Z,99.90
2018-08-06T04:35:14.846Z,99.90
2018-08-06T04:37:44.839Z,99.90
2018-08-06T04:40:14.406Z,99.90
2018-08-06T04:42:44.061Z,99.90
2018-08-06T04:45:13.479Z,99.90
2018-08-06T04:47:43.057Z,99.90
2018-08-06T04:50:14.027Z,99.90
2018-08-06T04:52:44.538Z,99.90
2018-08-06T04:55:14.812Z,99.90
2018-08-06T04:57:44.277Z,99.90
2018-08-06T05:00:15.031Z,99.90
2018-08-06T05:02:44.823Z,99.90
2018-08-06T05:05:14.200Z,99.90
2018-08-06T05:07:43.541Z,99.90
2018-08-06T05:10:12.947Z,99.90
2018-08-06T05:12:43.370Z,99.90
2018-08-06T05:15:12.701Z,99.90
2018-08-06T05:17:42.092Z,99.90
2018-08-06T05:20:11.601Z,99.90
2018-08-06T05:22:41.133Z,99.90
2018-08-06T05:25:10.493Z,99.90
2018-08-06T05:27:39.979Z,99.90
2018-08-06T05:30:11.237Z,99.90
2018-08-06T05:32:40.593Z,99.90
2018-08-06T05:35:09.966Z,99.90
2018-08-06T05:37:39.445Z,99.90
2018-08-06T05:40:09.330Z,99.90
2018-08-06T05:42:38.717Z,99.90
2018-08-06T05:45:09.258Z,99.90
2018-08-06T05:47:38.758Z,99.90
2018-08-06T05:50:10.453Z,99.90
2018-08-06T05:52:39.891Z,99.90
2018-08-06T05:55:10.211Z,99.90
2018-08-06T05:57:40.424Z,99.90
2018-08-06T06:00:16.427Z,99.90
2018-08-06T06:02:46.490Z,99.90
2018-08-06T06:05:16.064Z,99.90
2018-08-06T06:07:45.523Z,99.90
2018-08-06T06:10:15.706Z,99.90
2018-08-06T06:12:45.178Z,99.90
2018-08-06T06:15:16.069Z,99.90
2018-08-06T06:17:45.539Z,99.90
2018-08-06T06:20:14.949Z,99.90
2018-08-06T06:22:44.574Z,99.90
2018-08-06T06:25:14.476Z,99.90
2018-08-06T06:27:44.322Z,99.90
2018-08-06T06:30:16.046Z,99.90
2018-08-06T06:32:45.608Z,99.90
2018-08-06T06:35:15.064Z,99.90
2018-08-06T06:37:44.797Z,99.90
2018-08-06T06:40:14.753Z,99.90
2018-08-06T06:42:44.273Z,99.90
2018-08-06T06:45:13.720Z,99.50
2018-08-06T06:47:43.181Z,98.50
2018-08-06T06:50:12.590Z,97.80
2018-08-06T06:52:42.010Z,97.70
2018-08-06T06:55:12.894Z,97.90
2018-08-06T06:57:42.944Z,97.30
2018-08-06T07:00:12.748Z,97.70
2018-08-06T07:02:42.824Z,97.20
2018-08-06T07:05:12.231Z,96.40
2018-08-06T07:07:41.702Z,96.30
2018-08-06T07:10:12.571Z,97.10
2018-08-06T07:12:42.375Z,97.20
2018-08-06T07:15:14.452Z,97.30
2018-08-06T07:17:46.005Z,96.00
2018-08-06T07:20:16.782Z,96.70
2018-08-06T07:22:46.191Z,96.10
2018-08-06T07:25:15.773Z,95.30
2018-08-06T07:27:45.217Z,96.10
2018-08-06T07:30:15.751Z,95.00
2018-08-06T07:32:45.530Z,94.50
2018-08-06T07:35:15.511Z,95.10
2018-08-06T07:37:44.887Z,95.30
2018-08-06T07:40:15.304Z,94.10
2018-08-06T07:42:44.734Z,94.50
2018-08-06T07:45:16.488Z,94.60
2018-08-06T07:47:46.797Z,94.50
2018-08-06T07:50:17.797Z,94.30
2018-08-06T07:52:47.679Z,93.50
2018-08-06T07:55:17.635Z,93.10
2018-08-06T07:57:47.533Z,92.50
2018-08-06T08:00:18.560Z,92.30
2018-08-06T08:02:48.148Z,92.90
2018-08-06T08:05:18.596Z,92.70
2018-08-06T08:07:48.793Z,92.80
2018-08-06T08:10:24.015Z,92.20
2018-08-06T08:12:53.778Z,92.80
2018-08-06T08:15:25.100Z,92.10
2018-08-06T08:20:24.617Z,92.40
2018-08-06T08:22:53.978Z,92.00
2018-08-06T08:25:23.870Z,91.50
2018-08-06T08:27:53.435Z,91.30
2018-08-06T08:30:22.900Z,90.90
2018-08-06T08:32:52.628Z,91.30
2018-08-06T08:35:28.295Z,91.10
2018-08-06T08:37:58.067Z,91.00
2018-08-06T08:40:27.725Z,90.10
2018-08-06T08:42:57.361Z,88.30
2018-08-06T08:45:27.058Z,89.10
2018-08-06T08:47:56.815Z,89.20
2018-08-06T08:50:26.362Z,88.50
2018-08-06T08:52:55.855Z,88.40
2018-08-06T08:55:25.375Z,87.70
2018-08-06T08:57:55.055Z,88.70
2018-08-06T09:00:24.714Z,87.20
2018-08-06T09:02:54.204Z,87.70
2018-08-06T09:05:23.859Z,87.90
2018-08-06T09:07:54.010Z,88.40
2018-08-06T09:10:23.697Z,85.80
2018-08-06T09:12:53.222Z,86.50
2018-08-06T09:15:25.643Z,87.20
2018-08-06T09:17:55.292Z,85.50
2018-08-06T09:20:25.699Z,85.20
2018-08-06T09:22:55.465Z,84.50
2018-08-06T09:25:25.058Z,86.10
2018-08-06T09:27:54.809Z,84.80
2018-08-06T09:30:25.185Z,85.10
2018-08-06T09:32:55.992Z,84.00
2018-08-06T09:35:25.457Z,84.20
2018-08-06T09:37:55.162Z,83.10
2018-08-06T09:40:25.073Z,84.60
2018-08-06T09:42:54.829Z,82.70
2018-08-06T09:45:24.682Z,83.00
2018-08-06T09:47:55.043Z,81.50
2018-08-06T09:50:24.594Z,82.20
2018-08-06T09:52:54.846Z,82.80
2018-08-06T09:55:27.483Z,81.50
2018-08-06T09:57:56.998Z,80.90
2018-08-06T10:01:32.881Z,81.30
2018-08-06T10:04:02.226Z,81.90
2018-08-06T10:06:31.855Z,82.00
2018-08-06T10:09:01.404Z,82.20
2018-08-06T10:11:30.783Z,79.80
2018-08-06T10:14:00.352Z,80.90
2018-08-06T10:16:29.794Z,80.60
2018-08-06T10:18:59.444Z,81.30
2018-08-06T10:21:28.986Z,80.80
2018-08-06T10:23:58.683Z,78.30
2018-08-06T10:26:28.698Z,78.10
2018-08-06T10:28:58.357Z,78.70
2018-08-06T10:31:27.796Z,79.50
2018-08-06T10:33:57.467Z,79.10
2018-08-06T10:36:26.994Z,78.00
2018-08-06T10:38:56.561Z,77.90
2018-08-06T10:41:26.080Z,78.00
2018-08-06T10:43:55.689Z,77.20
2018-08-06T10:46:25.231Z,75.20
2018-08-06T10:48:54.958Z,78.30
2018-08-06T10:51:24.441Z,78.00
2018-08-06T10:53:53.846Z,77.50
2018-08-06T10:56:23.218Z,76.10
2018-08-06T10:58:52.613Z,77.50
2018-08-06T11:01:22.004Z,76.10
2018-08-06T11:03:51.417Z,74.00
2018-08-06T11:06:20.779Z,75.50
2018-08-06T11:08:50.203Z,74.40
2018-08-06T11:11:19.535Z,75.60
2018-08-06T11:13:48.892Z,74.00
2018-08-06T11:16:18.336Z,74.40
2018-08-06T11:18:47.675Z,74.70
2018-08-06T11:21:17.029Z,75.70
2018-08-06T11:23:46.381Z,76.50
2018-08-06T11:26:15.814Z,74.40
2018-08-06T11:28:45.252Z,73.90
2018-08-06T11:31:14.594Z,73.50
2018-08-06T11:33:44.038Z,74.00
2018-08-06T11:36:13.485Z,72.70
2018-08-06T11:38:42.873Z,72.50
2018-08-06T11:41:12.294Z,74.00
2018-08-06T11:43:41.733Z,73.50
2018-08-06T11:46:14.088Z,71.50
2018-08-06T11:48:44.693Z,70.80
2018-08-06T11:51:14.682Z,71.10
2018-08-06T11:53:44.438Z,70.30
2018-08-06T11:56:14.257Z,72.30
2018-08-06T11:58:43.859Z,70.70
2018-08-06T12:01:13.355Z,71.00
2018-08-06T12:03:45.736Z,68.50
2018-08-06T12:06:15.767Z,68.60
2018-08-06T12:11:15.653Z,69.80
2018-08-06T12:13:45.456Z,69.00
2018-08-06T12:16:21.511Z,70.00
2018-08-06T12:18:51.195Z,67.50
2018-08-06T12:21:20.767Z,67.50
2018-08-06T12:23:50.451Z,68.90
2018-08-06T12:26:20.216Z,67.70
2018-08-06T12:28:49.604Z,67.80
2018-08-06T12:31:19.063Z,67.70
2018-08-06T12:33:48.487Z,68.30
2018-08-06T12:36:17.838Z,66.60
2018-08-06T12:39:18.358Z,67.20
2018-08-06T12:41:47.741Z,66.20
2018-08-06T12:44:17.356Z,66.40
2018-08-06T12:46:47.605Z,66.90
2018-08-06T12:49:17.583Z,65.60
2018-08-06T12:51:47.331Z,64.80
2018-08-06T12:54:16.782Z,66.10
2018-08-06T12:56:46.427Z,65.00
2018-08-06T12:59:15.928Z,64.40
2018-08-06T13:01:45.536Z,63.80
2018-08-06T13:04:15.205Z,63.80
2018-08-06T13:06:44.609Z,64.40
2018-08-06T13:09:16.231Z,63.40
2018-08-06T13:11:46.695Z,62.50
2018-08-06T13:14:16.338Z,62.00
2018-08-06T13:16:45.790Z,62.10
2018-08-06T13:19:15.332Z,62.30
2018-08-06T13:21:45.648Z,62.60
2018-08-06T13:24:15.242Z,61.50
2018-08-06T13:26:44.651Z,61.90
2018-08-06T13:29:14.053Z,58.90
2018-08-06T13:31:43.483Z,60.10
2018-08-06T13:34:13.023Z,59.10
2018-08-06T13:36:43.291Z,57.30
2018-08-06T13:39:12.791Z,58.00
2018-08-06T13:41:42.243Z,58.00
2018-08-06T13:44:12.777Z,57.90
2018-08-06T13:46:42.339Z,58.80
2018-08-06T13:49:12.185Z,55.40
2018-08-06T13:51:46.506Z,57.70
2018-08-06T13:54:20.767Z,57.20
2018-08-06T13:56:50.982Z,59.10
2018-08-06T13:59:20.553Z,57.90
2018-08-06T14:01:50.047Z,58.10
2018-08-06T14:04:20.889Z,58.00
2018-08-06T14:06:50.405Z,58.00
2018-08-06T14:09:20.057Z,58.10
2018-08-06T14:11:50.701Z,58.20
2018-08-06T14:14:20.106Z,56.00
2018-08-06T14:16:49.675Z,56.80
2018-08-06T14:19:19.187Z,57.60
2018-08-06T14:21:48.733Z,57.90
2018-08-06T14:24:19.493Z,59.40
2018-08-06T14:26:48.975Z,59.30
2018-08-06T14:29:18.505Z,58.30
2018-08-06T14:31:48.056Z,58.00
2018-08-06T14:34:17.916Z,57.80
2018-08-06T14:36:47.381Z,57.30
2018-08-06T14:39:16.807Z,56.60
2018-08-06T14:41:46.397Z,57.90
2018-08-06T14:44:15.799Z,57.30
2018-08-06T14:46:45.282Z,58.50
2018-08-06T14:49:14.792Z,56.60
2018-08-06T14:51:44.359Z,58.20
2018-08-06T14:54:13.933Z,56.80
2018-08-06T14:56:43.535Z,57.70
2018-08-06T14:59:13.731Z,56.80
2018-08-06T15:01:43.715Z,56.60
2018-08-06T15:04:13.619Z,57.10
2018-08-06T15:06:43.075Z,57.50
2018-08-06T15:09:13.757Z,57.90
2018-08-06T15:11:43.886Z,58.10
2018-08-06T15:14:15.230Z,58.20
2018-08-06T15:16:45.007Z,59.00
2018-08-06T15:19:14.890Z,58.30
2018-08-06T15:21:44.266Z,57.20
2018-08-06T15:24:13.975Z,59.10
2018-08-06T15:26:44.026Z,58.60
2018-08-06T15:29:13.497Z,58.20
2018-08-06T15:31:43.065Z,58.60
2018-08-06T15:34:13.166Z,58.00
2018-08-06T15:36:42.770Z,57.40
2018-08-06T15:39:14.462Z,57.00
2018-08-06T15:44:13.938Z,57.30
2018-08-06T15:49:12.544Z,57.70
2018-08-06T15:51:42.216Z,57.80
2018-08-06T15:54:14.032Z,58.30
2018-08-06T15:56:43.703Z,58.20
2018-08-06T15:59:13.442Z,57.50
2018-08-06T16:01:42.969Z,59.00
2018-08-06T16:04:12.636Z,58.30
2018-08-06T16:06:42.559Z,58.40
2018-08-06T16:09:12.301Z,58.70
2018-08-06T16:11:41.876Z,58.50
2018-08-06T16:14:11.390Z,59.20
2018-08-06T16:16:41.164Z,60.50
2018-08-06T16:19:11.310Z,58.20
2018-08-06T16:21:41.000Z,59.40
2018-08-06T16:24:10.441Z,58.80
2018-08-06T16:26:40.254Z,58.50
2018-08-06T16:29:09.883Z,58.70
2018-08-06T16:31:39.595Z,59.10
2018-08-06T16:34:09.082Z,58.60
2018-08-06T16:36:38.638Z,59.10
2018-08-06T16:39:11.745Z,59.50
2018-08-06T16:41:41.387Z,58.80
2018-08-06T16:44:11.578Z,59.20
2018-08-06T16:46:41.580Z,60.30
2018-08-06T16:49:12.242Z,59.80
2018-08-06T16:51:41.844Z,59.90
2018-08-06T16:54:11.630Z,58.50
2018-08-06T16:56:41.237Z,59.30
2018-08-06T16:59:10.892Z,61.60
2018-08-06T17:01:40.485Z,60.80
2018-08-06T17:04:10.554Z,59.80
2018-08-06T17:06:40.515Z,59.70
2018-08-06T17:09:10.937Z,59.50
2018-08-06T17:11:40.570Z,59.90
2018-08-06T17:14:10.399Z,60.80
2018-08-06T17:16:40.086Z,60.50
2018-08-06T17:19:11.632Z,60.30
2018-08-06T17:21:41.296Z,60.70
2018-08-06T17:24:11.109Z,61.30
2018-08-06T17:26:40.830Z,61.40
2018-08-06T17:29:11.271Z,60.60
2018-08-06T17:31:40.813Z,60.80
2018-08-06T17:34:10.393Z,61.10
2018-08-06T17:36:39.825Z,61.00
2018-08-06T17:39:11.416Z,61.00
2018-08-06T17:41:41.172Z,61.50
2018-08-06T17:44:10.966Z,61.70
2018-08-06T17:46:40.755Z,61.80
2018-08-06T17:49:10.624Z,62.10
2018-08-06T17:51:40.179Z,61.60
2018-08-06T17:54:09.956Z,61.30
2018-08-06T17:56:39.589Z,61.50
2018-08-06T18:01:38.461Z,62.80
2018-08-06T18:04:08.204Z,63.20
2018-08-06T18:06:37.971Z,63.20
2018-08-06T18:09:10.995Z,63.10
2018-08-06T18:14:09.575Z,63.50
2018-08-06T18:16:39.385Z,62.80
2018-08-06T18:19:09.017Z,63.70
2018-08-06T18:21:38.437Z,63.60
2018-08-06T18:24:07.848Z,63.40
2018-08-06T18:26:37.251Z,63.90
2018-08-06T18:29:06.593Z,64.00
2018-08-06T18:31:35.946Z,64.90
2018-08-06T18:34:05.458Z,65.00
2018-08-06T18:36:34.855Z,65.30
2018-08-06T18:39:06.547Z,65.90
2018-08-06T18:41:36.051Z,66.70
2018-08-06T18:44:05.572Z,67.50
2018-08-06T18:46:36.082Z,67.20
2018-08-06T18:49:05.733Z,67.20
2018-08-06T18:51:35.287Z,68.30
2018-08-06T18:54:04.785Z,68.20
2018-08-06T18:56:34.225Z,67.50
2018-08-06T18:59:03.627Z,69.40
2018-08-06T19:01:33.025Z,70.30
2018-08-06T19:04:02.454Z,69.10
2018-08-06T19:06:31.834Z,70.00
2018-08-06T19:09:01.274Z,70.20
2018-08-06T19:11:30.732Z,69.90
2018-08-06T19:14:05.383Z,70.90
2018-08-06T19:16:34.705Z,71.00
2018-08-06T19:21:38.526Z,72.40
2018-08-06T19:25:15.645Z,71.80
2018-08-06T19:27:55.989Z,72.40
2018-08-06T19:30:30.720Z,71.30
2018-08-06T19:33:00.629Z,71.20
2018-08-06T19:35:30.054Z,70.90
2018-08-06T19:37:59.403Z,71.70
2018-08-06T19:40:28.754Z,72.30
2018-08-06T19:43:03.468Z,72.10
2018-08-06T19:45:32.889Z,74.70
2018-08-06T19:48:02.456Z,74.40
2018-08-06T19:53:07.104Z,74.20
2018-08-06T19:58:10.673Z,75.20
2018-08-06T20:00:40.001Z,74.90
2018-08-06T20:03:09.431Z,75.60
2018-08-06T20:05:38.787Z,76.10
2018-08-06T20:08:08.258Z,75.50
2018-08-06T20:10:37.733Z,75.40
2018-08-06T20:13:07.100Z,76.20
2018-08-06T20:15:36.471Z,75.90
2018-08-06T20:18:05.966Z,75.50
2018-08-06T20:20:35.401Z,75.80
2018-08-06T20:23:04.844Z,77.80
2018-08-06T20:25:34.218Z,77.20
2018-08-06T20:28:03.618Z,77.80
2018-08-06T20:30:32.966Z,77.80
2018-08-06T20:33:02.331Z,77.00
2018-08-06T20:35:31.756Z,78.00
2018-08-06T20:38:01.064Z,77.60
2018-08-06T20:40:30.458Z,77.80
2018-08-06T20:42:59.883Z,77.80
2018-08-06T20:45:29.234Z,77.50
2018-08-06T20:47:58.589Z,77.70
2018-08-06T20:50:28.036Z,78.00
2018-08-06T20:52:57.397Z,77.90
2018-08-06T20:55:26.787Z,77.80
2018-08-06T20:57:56.176Z,78.10
2018-08-06T21:00:26.210Z,78.20
2018-08-06T21:02:55.598Z,79.20
2018-08-06T21:05:24.993Z,79.40
2018-08-06T21:07:54.390Z,79.50
2018-08-06T21:10:23.764Z,80.10
2018-08-06T21:12:53.111Z,80.80
2018-08-06T21:15:22.594Z,81.40
2018-08-06T21:17:51.954Z,81.90
2018-08-06T21:20:21.477Z,82.30
2018-08-06T21:22:50.814Z,83.40
2018-08-06T21:25:20.247Z,83.90
2018-08-06T21:27:49.593Z,83.40
2018-08-06T21:30:20.955Z,83.20
2018-08-06T21:32:53.786Z,83.80
2018-08-06T21:35:24.431Z,84.90
2018-08-06T21:37:54.619Z,84.30
2018-08-06T21:40:24.777Z,85.30
2018-08-06T21:42:54.223Z,86.40
2018-08-06T21:45:23.570Z,86.50
2018-08-06T21:47:53.012Z,86.60
2018-08-06T21:50:22.456Z,86.50
2018-08-06T21:52:51.832Z,87.60
2018-08-06T21:55:21.224Z,88.00
2018-08-06T21:57:50.636Z,88.20
2018-08-06T22:00:38.302Z,87.70
2018-08-06T22:03:09.850Z,87.90
2018-08-06T22:05:39.262Z,87.90
2018-08-06T22:10:37.593Z,87.90
2018-08-06T22:13:07.498Z,86.70
2018-08-06T22:15:36.891Z,86.70
2018-08-06T22:18:06.662Z,88.50
2018-08-06T22:20:36.019Z,88.50
2018-08-06T22:23:05.489Z,88.30
2018-08-06T22:25:34.861Z,87.60
2018-08-06T22:28:04.389Z,88.40
2018-08-06T22:30:33.734Z,89.10
2018-08-06T22:33:03.123Z,89.50
2018-08-06T22:35:32.479Z,89.30
2018-08-06T22:38:01.826Z,90.30
2018-08-06T22:40:31.165Z,89.90
2018-08-06T22:43:00.557Z,89.90
2018-08-06T22:45:29.881Z,89.20
2018-08-06T22:47:59.224Z,90.00
2018-08-06T22:50:28.555Z,90.20
2018-08-06T22:52:57.893Z,90.00
2018-08-06T22:55:27.228Z,90.50
2018-08-06T22:57:56.573Z,90.80
2018-08-06T23:00:25.977Z,91.20
2018-08-06T23:02:55.278Z,91.30
2018-08-06T23:05:24.680Z,91.10
2018-08-06T23:07:53.973Z,91.30
2018-08-06T23:10:23.365Z,91.40
2018-08-06T23:12:52.696Z,91.50
2018-08-06T23:15:22.033Z,91.90
2018-08-06T23:17:51.402Z,92.00
2018-08-06T23:20:20.762Z,91.80
2018-08-06T23:22:50.134Z,91.90
2018-08-06T23:25:21.501Z,91.70
2018-08-06T23:27:50.902Z,92.20
2018-08-06T23:30:20.319Z,92.40
2018-08-06T23:32:49.618Z,92.10
2018-08-06T23:35:18.941Z,92.70
2018-08-06T23:37:48.283Z,93.00
2018-08-06T23:40:17.684Z,92.70
2018-08-06T23:42:46.985Z,92.70
2018-08-06T23:45:16.614Z,93.30
2018-08-06T23:47:45.989Z,93.20
2018-08-06T23:50:15.931Z,93.10
2018-08-06T23:52:46.271Z,93.50
2018-08-06T23:55:17.122Z,93.50
2018-08-06T23:57:46.677Z,94.60
